sensor_id;sensor_type;location;lat;lon;timestamp;P1;durP1;ratioP1;P2;durP2;ratioP2
7359;SDS011;3720;48.274;7.796;2024-02-23T00:02:30;0.88;;;0.20;;
7359;SDS011;3720;48.274;7.796;2024-02-23T00:05:03;0.35;;;0.30;;
7359;SDS011;3720;48.274;7.796;2024-02-23T00:07:35;1.17;;;0.30;;
7359;SDS011;3720;48.274;7.796;2024-02-23T00:10:07;0.50;;;0.38;;
7359;SDS011;3720;48.274;7.796;2024-02-23T00:12:39;0.95;;;0.30;;
7359;SDS011;3720;48.274;7.796;2024-02-23T00:15:11;2.50;;;0.40;;
7359;SDS011;3720;48.274;7.796;2024-02-23T00:17:44;1.73;;;0.30;;
7359;SDS011;3720;48.274;7.796;2024-02-23T00:20:16;0.88;;;0.30;;
7359;SDS011;3720;48.274;7.796;2024-02-23T00:22:48;1.85;;;0.30;;
7359;SDS011;3720;48.274;7.796;2024-02-23T00:25:19;1.45;;;0.30;;
7359;SDS011;3720;48.274;7.796;2024-02-23T00:27:53;1.80;;;0.50;;
7359;SDS011;3720;48.274;7.796;2024-02-23T00:30:25;3.42;;;0.43;;
7359;SDS011;3720;48.274;7.796;2024-02-23T00:32:58;1.35;;;0.40;;
7359;SDS011;3720;48.274;7.796;2024-02-23T00:35:30;2.05;;;0.60;;
7359;SDS011;3720;48.274;7.796;2024-02-23T00:38:02;2.58;;;0.52;;
7359;SDS011;3720;48.274;7.796;2024-02-23T00:40:34;1.88;;;0.38;;
7359;SDS011;3720;48.274;7.796;2024-02-23T00:43:06;3.38;;;0.60;;
7359;SDS011;3720;48.274;7.796;2024-02-23T00:45:38;1.55;;;0.50;;
7359;SDS011;3720;48.274;7.796;2024-02-23T00:48:12;2.65;;;0.32;;
7359;SDS011;3720;48.274;7.796;2024-02-23T00:50:44;2.22;;;0.43;;
7359;SDS011;3720;48.274;7.796;2024-02-23T00:53:15;1.40;;;0.50;;
7359;SDS011;3720;48.274;7.796;2024-02-23T00:55:47;1.98;;;0.32;;
7359;SDS011;3720;48.274;7.796;2024-02-23T00:58:19;0.88;;;0.35;;
7359;SDS011;3720;48.274;7.796;2024-02-23T01:00:51;2.65;;;0.50;;
7359;SDS011;3720;48.274;7.796;2024-02-23T01:03:24;1.33;;;0.40;;
7359;SDS011;3720;48.274;7.796;2024-02-23T01:05:56;2.00;;;0.40;;
7359;SDS011;3720;48.274;7.796;2024-02-23T01:08:28;0.70;;;0.30;;
7359;SDS011;3720;48.274;7.796;2024-02-23T01:11:00;0.63;;;0.38;;
7359;SDS011;3720;48.274;7.796;2024-02-23T01:13:31;4.00;;;0.47;;
7359;SDS011;3720;48.274;7.796;2024-02-23T01:16:03;1.50;;;0.40;;
7359;SDS011;3720;48.274;7.796;2024-02-23T01:18:37;0.98;;;0.47;;
7359;SDS011;3720;48.274;7.796;2024-02-23T01:21:09;3.60;;;0.50;;
7359;SDS011;3720;48.274;7.796;2024-02-23T01:23:41;2.47;;;0.55;;
7359;SDS011;3720;48.274;7.796;2024-02-23T01:26:13;1.45;;;0.50;;
7359;SDS011;3720;48.274;7.796;2024-02-23T01:28:44;2.15;;;0.60;;
7359;SDS011;3720;48.274;7.796;2024-02-23T01:31:16;4.00;;;0.52;;
7359;SDS011;3720;48.274;7.796;2024-02-23T01:33:49;1.20;;;0.47;;
7359;SDS011;3720;48.274;7.796;2024-02-23T01:36:21;1.95;;;0.55;;
7359;SDS011;3720;48.274;7.796;2024-02-23T01:38:53;2.42;;;0.57;;
7359;SDS011;3720;48.274;7.796;2024-02-23T01:41:25;2.17;;;0.52;;
7359;SDS011;3720;48.274;7.796;2024-02-23T01:43:57;0.80;;;0.50;;
7359;SDS011;3720;48.274;7.796;2024-02-23T01:46:29;2.22;;;0.50;;
7359;SDS011;3720;48.274;7.796;2024-02-23T01:49:02;1.73;;;0.43;;
7359;SDS011;3720;48.274;7.796;2024-02-23T01:51:35;1.55;;;0.43;;
7359;SDS011;3720;48.274;7.796;2024-02-23T01:54:07;0.70;;;0.40;;
7359;SDS011;3720;48.274;7.796;2024-02-23T01:56:40;1.45;;;0.47;;
7359;SDS011;3720;48.274;7.796;2024-02-23T01:59:12;2.15;;;0.60;;
7359;SDS011;3720;48.274;7.796;2024-02-23T02:01:45;2.25;;;0.70;;
7359;SDS011;3720;48.274;7.796;2024-02-23T02:04:18;1.92;;;0.50;;
7359;SDS011;3720;48.274;7.796;2024-02-23T02:06:51;8.10;;;0.73;;
7359;SDS011;3720;48.274;7.796;2024-02-23T02:09:22;1.38;;;0.40;;
7359;SDS011;3720;48.274;7.796;2024-02-23T02:11:54;0.95;;;0.47;;
7359;SDS011;3720;48.274;7.796;2024-02-23T02:14:26;1.45;;;0.40;;
7359;SDS011;3720;48.274;7.796;2024-02-23T02:17:01;2.95;;;0.60;;
7359;SDS011;3720;48.274;7.796;2024-02-23T02:19:34;1.63;;;0.50;;
7359;SDS011;3720;48.274;7.796;2024-02-23T02:22:06;0.98;;;0.20;;
7359;SDS011;3720;48.274;7.796;2024-02-23T02:24:38;1.90;;;0.65;;
7359;SDS011;3720;48.274;7.796;2024-02-23T02:27:12;1.38;;;0.50;;
7359;SDS011;3720;48.274;7.796;2024-02-23T02:29:44;2.78;;;0.65;;
7359;SDS011;3720;48.274;7.796;2024-02-23T02:32:16;2.55;;;0.70;;
7359;SDS011;3720;48.274;7.796;2024-02-23T02:34:49;2.80;;;0.68;;
7359;SDS011;3720;48.274;7.796;2024-02-23T02:37:21;2.65;;;0.77;;
7359;SDS011;3720;48.274;7.796;2024-02-23T02:39:53;2.38;;;0.80;;
7359;SDS011;3720;48.274;7.796;2024-02-23T02:42:25;2.97;;;0.70;;
7359;SDS011;3720;48.274;7.796;2024-02-23T02:44:58;4.32;;;0.70;;
7359;SDS011;3720;48.274;7.796;2024-02-23T02:47:30;4.63;;;0.75;;
7359;SDS011;3720;48.274;7.796;2024-02-23T02:50:04;2.65;;;0.50;;
7359;SDS011;3720;48.274;7.796;2024-02-23T02:52:37;4.43;;;0.55;;
7359;SDS011;3720;48.274;7.796;2024-02-23T02:55:09;3.97;;;0.90;;
7359;SDS011;3720;48.274;7.796;2024-02-23T02:57:40;3.80;;;0.80;;
7359;SDS011;3720;48.274;7.796;2024-02-23T03:00:12;3.63;;;1.00;;
7359;SDS011;3720;48.274;7.796;2024-02-23T03:02:44;5.25;;;0.70;;
7359;SDS011;3720;48.274;7.796;2024-02-23T03:05:18;3.28;;;0.70;;
7359;SDS011;3720;48.274;7.796;2024-02-23T03:07:49;3.70;;;0.68;;
7359;SDS011;3720;48.274;7.796;2024-02-23T03:10:21;2.75;;;0.63;;
7359;SDS011;3720;48.274;7.796;2024-02-23T03:12:53;4.88;;;1.05;;
7359;SDS011;3720;48.274;7.796;2024-02-23T03:15:25;3.33;;;0.70;;
7359;SDS011;3720;48.274;7.796;2024-02-23T03:17:57;3.67;;;0.90;;
7359;SDS011;3720;48.274;7.796;2024-02-23T03:20:32;3.65;;;0.70;;
7359;SDS011;3720;48.274;7.796;2024-02-23T03:23:04;5.55;;;0.82;;
7359;SDS011;3720;48.274;7.796;2024-02-23T03:25:36;5.75;;;1.13;;
7359;SDS011;3720;48.274;7.796;2024-02-23T03:28:07;3.38;;;0.70;;
7359;SDS011;3720;48.274;7.796;2024-02-23T03:30:39;5.53;;;0.93;;
7359;SDS011;3720;48.274;7.796;2024-02-23T03:33:11;2.90;;;0.80;;
7359;SDS011;3720;48.274;7.796;2024-02-23T03:35:44;4.85;;;0.82;;
7359;SDS011;3720;48.274;7.796;2024-02-23T03:38:16;2.65;;;0.70;;
7359;SDS011;3720;48.274;7.796;2024-02-23T03:40:48;2.53;;;0.70;;
7359;SDS011;3720;48.274;7.796;2024-02-23T03:43:20;3.20;;;0.60;;
7359;SDS011;3720;48.274;7.796;2024-02-23T03:45:51;2.17;;;0.90;;
7359;SDS011;3720;48.274;7.796;2024-02-23T03:48:23;4.50;;;0.80;;
7359;SDS011;3720;48.274;7.796;2024-02-23T03:50:56;4.75;;;0.90;;
7359;SDS011;3720;48.274;7.796;2024-02-23T03:53:28;7.57;;;1.13;;
7359;SDS011;3720;48.274;7.796;2024-02-23T03:56:00;2.83;;;0.65;;
7359;SDS011;3720;48.274;7.796;2024-02-23T03:58:32;1.25;;;0.60;;
7359;SDS011;3720;48.274;7.796;2024-02-23T04:01:04;1.55;;;0.70;;
7359;SDS011;3720;48.274;7.796;2024-02-23T04:03:35;1.85;;;0.63;;
7359;SDS011;3720;48.274;7.796;2024-02-23T04:06:09;2.50;;;0.77;;
7359;SDS011;3720;48.274;7.796;2024-02-23T04:08:40;4.07;;;0.80;;
7359;SDS011;3720;48.274;7.796;2024-02-23T04:11:13;4.13;;;0.77;;
7359;SDS011;3720;48.274;7.796;2024-02-23T04:13:44;2.50;;;1.08;;
7359;SDS011;3720;48.274;7.796;2024-02-23T04:16:16;2.17;;;1.00;;
7359;SDS011;3720;48.274;7.796;2024-02-23T04:18:48;3.58;;;2.10;;
7359;SDS011;3720;48.274;7.796;2024-02-23T04:21:21;4.57;;;1.70;;
7359;SDS011;3720;48.274;7.796;2024-02-23T04:23:53;2.83;;;0.80;;
7359;SDS011;3720;48.274;7.796;2024-02-23T04:26:25;3.75;;;1.30;;
7359;SDS011;3720;48.274;7.796;2024-02-23T04:28:57;3.65;;;0.90;;
7359;SDS011;3720;48.274;7.796;2024-02-23T04:31:28;4.57;;;0.80;;
7359;SDS011;3720;48.274;7.796;2024-02-23T04:34:00;5.15;;;0.80;;
7359;SDS011;3720;48.274;7.796;2024-02-23T04:36:33;3.15;;;0.90;;
7359;SDS011;3720;48.274;7.796;2024-02-23T04:39:05;4.30;;;0.90;;
7359;SDS011;3720;48.274;7.796;2024-02-23T04:41:37;3.05;;;0.70;;
7359;SDS011;3720;48.274;7.796;2024-02-23T04:44:09;3.05;;;1.00;;
7359;SDS011;3720;48.274;7.796;2024-02-23T04:46:41;2.47;;;0.80;;
7359;SDS011;3720;48.274;7.796;2024-02-23T04:49:13;3.20;;;1.05;;
7359;SDS011;3720;48.274;7.796;2024-02-23T04:51:46;3.85;;;1.10;;
7359;SDS011;3720;48.274;7.796;2024-02-23T04:54:17;4.82;;;1.38;;
7359;SDS011;3720;48.274;7.796;2024-02-23T04:56:49;3.08;;;1.30;;
7359;SDS011;3720;48.274;7.796;2024-02-23T04:59:21;4.95;;;1.70;;
7359;SDS011;3720;48.274;7.796;2024-02-23T05:01:53;5.55;;;1.90;;
7359;SDS011;3720;48.274;7.796;2024-02-23T05:04:25;3.08;;;1.50;;
7359;SDS011;3720;48.274;7.796;2024-02-23T05:06:59;6.10;;;1.17;;
7359;SDS011;3720;48.274;7.796;2024-02-23T05:09:31;3.70;;;1.08;;
7359;SDS011;3720;48.274;7.796;2024-02-23T05:12:05;3.90;;;0.95;;
7359;SDS011;3720;48.274;7.796;2024-02-23T05:14:37;3.55;;;0.90;;
7359;SDS011;3720;48.274;7.796;2024-02-23T05:17:09;5.38;;;1.00;;
7359;SDS011;3720;48.274;7.796;2024-02-23T05:19:41;5.15;;;0.90;;
7359;SDS011;3720;48.274;7.796;2024-02-23T05:22:14;3.05;;;0.82;;
7359;SDS011;3720;48.274;7.796;2024-02-23T05:24:46;2.80;;;0.90;;
7359;SDS011;3720;48.274;7.796;2024-02-23T05:27:18;5.43;;;1.13;;
7359;SDS011;3720;48.274;7.796;2024-02-23T05:29:50;4.38;;;0.90;;
7359;SDS011;3720;48.274;7.796;2024-02-23T05:32:21;4.75;;;1.00;;
7359;SDS011;3720;48.274;7.796;2024-02-23T05:34:53;5.00;;;1.13;;
7359;SDS011;3720;48.274;7.796;2024-02-23T05:37:28;3.28;;;0.70;;
7359;SDS011;3720;48.274;7.796;2024-02-23T05:40:00;4.90;;;1.00;;
7359;SDS011;3720;48.274;7.796;2024-02-23T05:42:36;1.85;;;0.70;;
7359;SDS011;3720;48.274;7.796;2024-02-23T05:45:08;3.05;;;0.90;;
7359;SDS011;3720;48.274;7.796;2024-02-23T05:47:41;3.55;;;0.90;;
7359;SDS011;3720;48.274;7.796;2024-02-23T05:50:13;4.95;;;0.80;;
7359;SDS011;3720;48.274;7.796;2024-02-23T05:52:46;4.70;;;1.00;;
7359;SDS011;3720;48.274;7.796;2024-02-23T05:55:18;4.93;;;1.30;;
7359;SDS011;3720;48.274;7.796;2024-02-23T05:57:50;5.65;;;1.20;;
7359;SDS011;3720;48.274;7.796;2024-02-23T06:00:22;4.50;;;0.90;;
7359;SDS011;3720;48.274;7.796;2024-02-23T06:02:53;3.92;;;0.98;;
7359;SDS011;3720;48.274;7.796;2024-02-23T06:05:25;8.30;;;1.30;;
7359;SDS011;3720;48.274;7.796;2024-02-23T06:07:58;6.43;;;1.00;;
7359;SDS011;3720;48.274;7.796;2024-02-23T06:10:31;5.57;;;1.42;;
7359;SDS011;3720;48.274;7.796;2024-02-23T06:13:03;3.88;;;1.17;;
7359;SDS011;3720;48.274;7.796;2024-02-23T06:15:35;3.83;;;1.40;;
7359;SDS011;3720;48.274;7.796;2024-02-23T06:18:07;7.15;;;1.10;;
7359;SDS011;3720;48.274;7.796;2024-02-23T06:20:38;4.57;;;0.93;;
7359;SDS011;3720;48.274;7.796;2024-02-23T06:23:12;5.45;;;1.10;;
7359;SDS011;3720;48.274;7.796;2024-02-23T06:25:44;5.90;;;1.10;;
7359;SDS011;3720;48.274;7.796;2024-02-23T06:28:16;6.82;;;1.30;;
7359;SDS011;3720;48.274;7.796;2024-02-23T06:30:48;6.75;;;1.17;;
7359;SDS011;3720;48.274;7.796;2024-02-23T06:33:20;6.07;;;1.10;;
7359;SDS011;3720;48.274;7.796;2024-02-23T06:35:52;7.03;;;1.05;;
7359;SDS011;3720;48.274;7.796;2024-02-23T06:38:25;6.95;;;1.00;;
7359;SDS011;3720;48.274;7.796;2024-02-23T06:40:58;7.93;;;1.10;;
7359;SDS011;3720;48.274;7.796;2024-02-23T06:43:30;3.70;;;1.10;;
7359;SDS011;3720;48.274;7.796;2024-02-23T06:46:03;5.15;;;1.35;;
7359;SDS011;3720;48.274;7.796;2024-02-23T06:48:37;4.82;;;1.00;;
7359;SDS011;3720;48.274;7.796;2024-02-23T06:51:09;4.38;;;1.02;;
7359;SDS011;3720;48.274;7.796;2024-02-23T06:53:42;7.00;;;1.05;;
7359;SDS011;3720;48.274;7.796;2024-02-23T06:56:14;6.88;;;1.02;;
7359;SDS011;3720;48.274;7.796;2024-02-23T06:58:45;6.63;;;1.30;;
7359;SDS011;3720;48.274;7.796;2024-02-23T07:01:18;5.65;;;1.23;;
7359;SDS011;3720;48.274;7.796;2024-02-23T07:03:51;5.07;;;1.20;;
7359;SDS011;3720;48.274;7.796;2024-02-23T07:06:23;3.88;;;1.00;;
7359;SDS011;3720;48.274;7.796;2024-02-23T07:08:56;8.10;;;1.50;;
7359;SDS011;3720;48.274;7.796;2024-02-23T07:11:28;4.68;;;1.08;;
7359;SDS011;3720;48.274;7.796;2024-02-23T07:14:00;5.03;;;1.15;;
7359;SDS011;3720;48.274;7.796;2024-02-23T07:16:32;7.25;;;1.40;;
7359;SDS011;3720;48.274;7.796;2024-02-23T07:19:04;7.57;;;1.25;;
7359;SDS011;3720;48.274;7.796;2024-02-23T07:21:35;5.30;;;1.20;;
7359;SDS011;3720;48.274;7.796;2024-02-23T07:24:09;7.15;;;1.45;;
7359;SDS011;3720;48.274;7.796;2024-02-23T07:26:41;5.60;;;1.33;;
7359;SDS011;3720;48.274;7.796;2024-02-23T07:29:13;9.38;;;1.20;;
7359;SDS011;3720;48.274;7.796;2024-02-23T07:31:44;4.22;;;1.25;;
7359;SDS011;3720;48.274;7.796;2024-02-23T07:34:16;7.70;;;1.20;;
7359;SDS011;3720;48.274;7.796;2024-02-23T07:36:51;6.32;;;1.40;;
7359;SDS011;3720;48.274;7.796;2024-02-23T07:39:24;7.05;;;1.20;;
7359;SDS011;3720;48.274;7.796;2024-02-23T07:41:56;7.65;;;1.30;;
7359;SDS011;3720;48.274;7.796;2024-02-23T07:44:28;7.30;;;1.20;;
7359;SDS011;3720;48.274;7.796;2024-02-23T07:47:00;9.38;;;1.20;;
7359;SDS011;3720;48.274;7.796;2024-02-23T07:49:32;6.85;;;1.35;;
7359;SDS011;3720;48.274;7.796;2024-02-23T07:52:05;5.13;;;1.10;;
7359;SDS011;3720;48.274;7.796;2024-02-23T07:54:38;5.93;;;1.00;;
7359;SDS011;3720;48.274;7.796;2024-02-23T07:57:10;7.20;;;1.17;;
7359;SDS011;3720;48.274;7.796;2024-02-23T07:59:43;5.85;;;1.15;;
7359;SDS011;3720;48.274;7.796;2024-02-23T08:02:15;8.52;;;1.40;;
7359;SDS011;3720;48.274;7.796;2024-02-23T08:04:47;7.43;;;1.30;;
7359;SDS011;3720;48.274;7.796;2024-02-23T08:07:20;7.95;;;1.20;;
7359;SDS011;3720;48.274;7.796;2024-02-23T08:09:54;9.45;;;1.73;;
7359;SDS011;3720;48.274;7.796;2024-02-23T08:12:26;6.13;;;1.13;;
7359;SDS011;3720;48.274;7.796;2024-02-23T08:14:58;5.57;;;1.05;;
7359;SDS011;3720;48.274;7.796;2024-02-23T08:17:30;7.28;;;1.30;;
7359;SDS011;3720;48.274;7.796;2024-02-23T08:20:02;9.60;;;1.50;;
7359;SDS011;3720;48.274;7.796;2024-02-23T08:22:35;7.68;;;1.42;;
7359;SDS011;3720;48.274;7.796;2024-02-23T08:25:09;9.73;;;1.38;;
7359;SDS011;3720;48.274;7.796;2024-02-23T08:27:41;5.60;;;1.15;;
7359;SDS011;3720;48.274;7.796;2024-02-23T08:30:13;6.72;;;1.20;;
7359;SDS011;3720;48.274;7.796;2024-02-23T08:32:45;9.43;;;1.10;;
7359;SDS011;3720;48.274;7.796;2024-02-23T08:35:17;6.00;;;1.10;;
7359;SDS011;3720;48.274;7.796;2024-02-23T08:37:49;4.97;;;1.40;;
7359;SDS011;3720;48.274;7.796;2024-02-23T08:40:22;7.30;;;1.30;;
7359;SDS011;3720;48.274;7.796;2024-02-23T08:42:54;11.38;;;1.38;;
7359;SDS011;3720;48.274;7.796;2024-02-23T08:45:25;7.63;;;1.42;;
7359;SDS011;3720;48.274;7.796;2024-02-23T08:47:57;11.30;;;1.73;;
7359;SDS011;3720;48.274;7.796;2024-02-23T08:50:29;7.18;;;1.55;;
7359;SDS011;3720;48.274;7.796;2024-02-23T08:53:01;8.77;;;1.50;;
7359;SDS011;3720;48.274;7.796;2024-02-23T08:55:34;11.40;;;1.60;;
7359;SDS011;3720;48.274;7.796;2024-02-23T08:58:06;7.07;;;1.35;;
7359;SDS011;3720;48.274;7.796;2024-02-23T09:00:38;9.00;;;1.48;;
7359;SDS011;3720;48.274;7.796;2024-02-23T09:03:09;10.15;;;1.40;;
7359;SDS011;3720;48.274;7.796;2024-02-23T09:05:41;9.60;;;1.25;;
7359;SDS011;3720;48.274;7.796;2024-02-23T09:08:13;11.43;;;1.60;;
7359;SDS011;3720;48.274;7.796;2024-02-23T09:10:46;11.20;;;1.80;;
7359;SDS011;3720;48.274;7.796;2024-02-23T09:13:18;10.82;;;1.65;;
7359;SDS011;3720;48.274;7.796;2024-02-23T09:15:50;10.73;;;1.50;;
7359;SDS011;3720;48.274;7.796;2024-02-23T09:18:22;11.52;;;1.65;;
7359;SDS011;3720;48.274;7.796;2024-02-23T09:20:53;12.70;;;1.60;;
7359;SDS011;3720;48.274;7.796;2024-02-23T09:23:25;9.45;;;1.58;;
7359;SDS011;3720;48.274;7.796;2024-02-23T09:25:59;8.25;;;1.25;;
7359;SDS011;3720;48.274;7.796;2024-02-23T09:28:31;8.65;;;1.23;;
7359;SDS011;3720;48.274;7.796;2024-02-23T09:31:03;12.63;;;1.90;;
7359;SDS011;3720;48.274;7.796;2024-02-23T09:33:35;7.85;;;1.60;;
7359;SDS011;3720;48.274;7.796;2024-02-23T09:36:07;8.35;;;1.55;;
7359;SDS011;3720;48.274;7.796;2024-02-23T09:38:39;11.10;;;1.60;;
7359;SDS011;3720;48.274;7.796;2024-02-23T09:41:15;8.57;;;1.40;;
7359;SDS011;3720;48.274;7.796;2024-02-23T09:43:50;8.15;;;1.42;;
7359;SDS011;3720;48.274;7.796;2024-02-23T09:46:23;11.68;;;1.92;;
7359;SDS011;3720;48.274;7.796;2024-02-23T09:48:55;9.10;;;1.85;;
7359;SDS011;3720;48.274;7.796;2024-02-23T09:51:28;8.25;;;1.45;;
7359;SDS011;3720;48.274;7.796;2024-02-23T09:54:03;9.70;;;1.55;;
7359;SDS011;3720;48.274;7.796;2024-02-23T09:56:36;13.70;;;1.83;;
7359;SDS011;3720;48.274;7.796;2024-02-23T09:59:09;7.45;;;1.33;;
7359;SDS011;3720;48.274;7.796;2024-02-23T10:01:41;8.80;;;1.48;;
7359;SDS011;3720;48.274;7.796;2024-02-23T10:04:13;11.95;;;1.67;;
7359;SDS011;3720;48.274;7.796;2024-02-23T10:06:45;10.90;;;1.73;;
7359;SDS011;3720;48.274;7.796;2024-02-23T10:09:17;11.80;;;1.58;;
7359;SDS011;3720;48.274;7.796;2024-02-23T10:11:53;7.00;;;1.48;;
7359;SDS011;3720;48.274;7.796;2024-02-23T10:14:25;8.55;;;1.50;;
7359;SDS011;3720;48.274;7.796;2024-02-23T10:16:57;14.68;;;1.77;;
7359;SDS011;3720;48.274;7.796;2024-02-23T10:19:29;8.38;;;1.60;;
7359;SDS011;3720;48.274;7.796;2024-02-23T10:22:01;6.45;;;1.60;;
7359;SDS011;3720;48.274;7.796;2024-02-23T10:24:32;13.25;;;1.90;;
7359;SDS011;3720;48.274;7.796;2024-02-23T10:27:06;5.63;;;1.52;;
7359;SDS011;3720;48.274;7.796;2024-02-23T10:29:37;6.43;;;1.48;;
7359;SDS011;3720;48.274;7.796;2024-02-23T10:32:09;9.60;;;1.48;;
7359;SDS011;3720;48.274;7.796;2024-02-23T10:34:46;8.32;;;1.63;;
7359;SDS011;3720;48.274;7.796;2024-02-23T10:37:20;5.72;;;1.30;;
7359;SDS011;3720;48.274;7.796;2024-02-23T10:39:53;9.32;;;1.60;;
7359;SDS011;3720;48.274;7.796;2024-02-23T10:42:33;9.55;;;1.52;;
7359;SDS011;3720;48.274;7.796;2024-02-23T10:45:07;8.00;;;1.10;;
7359;SDS011;3720;48.274;7.796;2024-02-23T10:47:39;7.80;;;1.20;;
7359;SDS011;3720;48.274;7.796;2024-02-23T10:50:11;9.70;;;1.42;;
7359;SDS011;3720;48.274;7.796;2024-02-23T10:52:45;12.50;;;1.40;;
7359;SDS011;3720;48.274;7.796;2024-02-23T10:55:17;6.80;;;1.40;;
7359;SDS011;3720;48.274;7.796;2024-02-23T10:57:51;6.53;;;1.42;;
7359;SDS011;3720;48.274;7.796;2024-02-23T11:00:24;6.82;;;1.40;;
7359;SDS011;3720;48.274;7.796;2024-02-23T11:02:56;6.63;;;1.20;;
7359;SDS011;3720;48.274;7.796;2024-02-23T11:05:29;9.15;;;1.20;;
7359;SDS011;3720;48.274;7.796;2024-02-23T11:08:01;8.48;;;1.48;;
7359;SDS011;3720;48.274;7.796;2024-02-23T11:10:42;5.95;;;1.30;;
7359;SDS011;3720;48.274;7.796;2024-02-23T11:13:30;5.82;;;1.10;;
7359;SDS011;3720;48.274;7.796;2024-02-23T11:16:05;8.23;;;1.52;;
7359;SDS011;3720;48.274;7.796;2024-02-23T11:18:39;9.07;;;1.35;;
7359;SDS011;3720;48.274;7.796;2024-02-23T11:21:11;4.85;;;1.10;;
7359;SDS011;3720;48.274;7.796;2024-02-23T11:23:43;6.63;;;1.33;;
7359;SDS011;3720;48.274;7.796;2024-02-23T11:26:18;5.95;;;1.30;;
7359;SDS011;3720;48.274;7.796;2024-02-23T11:28:57;6.28;;;1.40;;
7359;SDS011;3720;48.274;7.796;2024-02-23T11:31:29;7.63;;;1.30;;
7359;SDS011;3720;48.274;7.796;2024-02-23T11:34:01;6.22;;;1.10;;
7359;SDS011;3720;48.274;7.796;2024-02-23T11:36:39;8.38;;;1.42;;
7359;SDS011;3720;48.274;7.796;2024-02-23T11:39:11;6.47;;;1.20;;
7359;SDS011;3720;48.274;7.796;2024-02-23T11:41:45;8.30;;;1.40;;
7359;SDS011;3720;48.274;7.796;2024-02-23T11:44:21;7.10;;;1.25;;
7359;SDS011;3720;48.274;7.796;2024-02-23T11:46:53;6.30;;;1.42;;
7359;SDS011;3720;48.274;7.796;2024-02-23T11:49:27;6.10;;;1.15;;
7359;SDS011;3720;48.274;7.796;2024-02-23T11:51:59;8.80;;;1.35;;
7359;SDS011;3720;48.274;7.796;2024-02-23T11:54:32;10.23;;;1.40;;
7359;SDS011;3720;48.274;7.796;2024-02-23T11:57:04;7.63;;;1.40;;
7359;SDS011;3720;48.274;7.796;2024-02-23T11:59:37;5.60;;;1.15;;
7359;SDS011;3720;48.274;7.796;2024-02-23T12:02:12;7.25;;;1.30;;
7359;SDS011;3720;48.274;7.796;2024-02-23T12:04:44;7.35;;;1.30;;
7359;SDS011;3720;48.274;7.796;2024-02-23T12:07:16;6.43;;;1.20;;
7359;SDS011;3720;48.274;7.796;2024-02-23T12:09:48;5.50;;;1.30;;
7359;SDS011;3720;48.274;7.796;2024-02-23T12:12:20;5.95;;;1.20;;
7359;SDS011;3720;48.274;7.796;2024-02-23T12:14:53;3.90;;;1.10;;
7359;SDS011;3720;48.274;7.796;2024-02-23T12:17:25;6.90;;;1.33;;
7359;SDS011;3720;48.274;7.796;2024-02-23T12:19:58;6.05;;;1.30;;
7359;SDS011;3720;48.274;7.796;2024-02-23T12:22:30;5.57;;;1.20;;
7359;SDS011;3720;48.274;7.796;2024-02-23T12:25:02;6.97;;;1.20;;
7359;SDS011;3720;48.274;7.796;2024-02-23T12:27:34;3.65;;;1.00;;
7359;SDS011;3720;48.274;7.796;2024-02-23T12:30:12;2.58;;;0.95;;
7359;SDS011;3720;48.274;7.796;2024-02-23T12:32:45;6.50;;;1.20;;
7359;SDS011;3720;48.274;7.796;2024-02-23T12:35:17;5.50;;;1.02;;
7359;SDS011;3720;48.274;7.796;2024-02-23T12:37:50;1.90;;;0.68;;
7359;SDS011;3720;48.274;7.796;2024-02-23T12:40:22;2.53;;;0.85;;
7359;SDS011;3720;48.274;7.796;2024-02-23T12:42:53;1.70;;;0.57;;
7359;SDS011;3720;48.274;7.796;2024-02-23T12:45:27;3.28;;;0.73;;
7359;SDS011;3720;48.274;7.796;2024-02-23T12:47:58;3.08;;;0.60;;
7359;SDS011;3720;48.274;7.796;2024-02-23T12:50:30;2.72;;;0.70;;
7359;SDS011;3720;48.274;7.796;2024-02-23T12:53:02;3.92;;;0.93;;
7359;SDS011;3720;48.274;7.796;2024-02-23T12:55:34;4.82;;;0.70;;
7359;SDS011;3720;48.274;7.796;2024-02-23T12:58:07;2.22;;;0.80;;
7359;SDS011;3720;48.274;7.796;2024-02-23T13:00:40;2.33;;;0.50;;
7359;SDS011;3720;48.274;7.796;2024-02-23T13:03:12;1.77;;;0.50;;
7359;SDS011;3720;48.274;7.796;2024-02-23T13:05:44;2.20;;;0.60;;
7359;SDS011;3720;48.274;7.796;2024-02-23T13:08:17;3.05;;;0.60;;
7359;SDS011;3720;48.274;7.796;2024-02-23T13:10:48;4.72;;;0.60;;
7359;SDS011;3720;48.274;7.796;2024-02-23T13:13:20;2.28;;;0.60;;
7359;SDS011;3720;48.274;7.796;2024-02-23T13:15:54;2.70;;;0.57;;
7359;SDS011;3720;48.274;7.796;2024-02-23T13:18:27;2.80;;;0.60;;
7359;SDS011;3720;48.274;7.796;2024-02-23T13:20:58;2.38;;;0.70;;
7359;SDS011;3720;48.274;7.796;2024-02-23T13:23:30;1.95;;;0.40;;
7359;SDS011;3720;48.274;7.796;2024-02-23T13:26:02;1.77;;;0.60;;
7359;SDS011;3720;48.274;7.796;2024-02-23T13:28:34;3.00;;;0.60;;
7359;SDS011;3720;48.274;7.796;2024-02-23T13:31:07;1.80;;;0.60;;
7359;SDS011;3720;48.274;7.796;2024-02-23T13:33:39;2.85;;;0.77;;
7359;SDS011;3720;48.274;7.796;2024-02-23T13:36:11;1.85;;;0.65;;
7359;SDS011;3720;48.274;7.796;2024-02-23T13:38:43;1.13;;;0.43;;
7359;SDS011;3720;48.274;7.796;2024-02-23T13:41:15;3.42;;;0.68;;
7359;SDS011;3720;48.274;7.796;2024-02-23T13:43:47;1.15;;;0.50;;
7359;SDS011;3720;48.274;7.796;2024-02-23T13:46:20;3.25;;;0.80;;
7359;SDS011;3720;48.274;7.796;2024-02-23T13:49:01;4.22;;;0.80;;
7359;SDS011;3720;48.274;7.796;2024-02-23T13:51:34;1.65;;;0.57;;
7359;SDS011;3720;48.274;7.796;2024-02-23T13:54:06;3.33;;;0.80;;
7359;SDS011;3720;48.274;7.796;2024-02-23T13:56:38;5.18;;;1.00;;
7359;SDS011;3720;48.274;7.796;2024-02-23T13:59:10;1.90;;;0.50;;
7359;SDS011;3720;48.274;7.796;2024-02-23T14:01:43;2.05;;;0.60;;
7359;SDS011;3720;48.274;7.796;2024-02-23T14:04:15;2.42;;;0.77;;
7359;SDS011;3720;48.274;7.796;2024-02-23T14:06:48;1.92;;;0.68;;
7359;SDS011;3720;48.274;7.796;2024-02-23T14:09:20;1.52;;;0.57;;
7359;SDS011;3720;48.274;7.796;2024-02-23T14:11:52;2.88;;;0.70;;
7359;SDS011;3720;48.274;7.796;2024-02-23T14:14:24;2.47;;;0.65;;
7359;SDS011;3720;48.274;7.796;2024-02-23T14:16:57;1.95;;;0.70;;
7359;SDS011;3720;48.274;7.796;2024-02-23T14:19:29;1.10;;;0.50;;
7359;SDS011;3720;48.274;7.796;2024-02-23T14:22:01;2.78;;;0.70;;
7359;SDS011;3720;48.274;7.796;2024-02-23T14:24:33;1.77;;;0.50;;
7359;SDS011;3720;48.274;7.796;2024-02-23T14:27:04;2.65;;;0.82;;
7359;SDS011;3720;48.274;7.796;2024-02-23T14:29:37;3.90;;;0.70;;
7359;SDS011;3720;48.274;7.796;2024-02-23T14:32:10;4.45;;;0.60;;
7359;SDS011;3720;48.274;7.796;2024-02-23T14:34:47;2.88;;;0.60;;
7359;SDS011;3720;48.274;7.796;2024-02-23T14:37:19;2.47;;;0.70;;
7359;SDS011;3720;48.274;7.796;2024-02-23T14:39:51;2.05;;;0.63;;
7359;SDS011;3720;48.274;7.796;2024-02-23T14:42:23;2.97;;;0.60;;
7359;SDS011;3720;48.274;7.796;2024-02-23T14:44:55;3.08;;;0.75;;
7359;SDS011;3720;48.274;7.796;2024-02-23T14:47:28;3.38;;;0.70;;
7359;SDS011;3720;48.274;7.796;2024-02-23T14:50:00;5.82;;;1.08;;
7359;SDS011;3720;48.274;7.796;2024-02-23T14:52:32;3.35;;;0.90;;
7359;SDS011;3720;48.274;7.796;2024-02-23T14:55:04;2.25;;;0.80;;
7359;SDS011;3720;48.274;7.796;2024-02-23T14:57:36;3.20;;;0.80;;
7359;SDS011;3720;48.274;7.796;2024-02-23T15:00:08;3.28;;;0.88;;
7359;SDS011;3720;48.274;7.796;2024-02-23T15:02:42;3.25;;;0.90;;
7359;SDS011;3720;48.274;7.796;2024-02-23T15:05:14;4.18;;;0.90;;
7359;SDS011;3720;48.274;7.796;2024-02-23T15:07:47;7.85;;;1.10;;
7359;SDS011;3720;48.274;7.796;2024-02-23T15:10:19;4.38;;;0.90;;
7359;SDS011;3720;48.274;7.796;2024-02-23T15:12:51;6.40;;;0.93;;
7359;SDS011;3720;48.274;7.796;2024-02-23T15:15:23;2.88;;;0.82;;
7359;SDS011;3720;48.274;7.796;2024-02-23T15:17:56;7.78;;;1.17;;
7359;SDS011;3720;48.274;7.796;2024-02-23T15:20:28;2.72;;;0.90;;
7359;SDS011;3720;48.274;7.796;2024-02-23T15:23:00;2.60;;;0.63;;
7359;SDS011;3720;48.274;7.796;2024-02-23T15:25:32;5.20;;;1.02;;
7359;SDS011;3720;48.274;7.796;2024-02-23T15:28:04;2.60;;;0.75;;
7359;SDS011;3720;48.274;7.796;2024-02-23T15:30:37;1.83;;;0.70;;
7359;SDS011;3720;48.274;7.796;2024-02-23T15:33:10;3.13;;;0.90;;
7359;SDS011;3720;48.274;7.796;2024-02-23T15:35:44;2.85;;;0.60;;
7359;SDS011;3720;48.274;7.796;2024-02-23T15:38:16;3.97;;;0.90;;
7359;SDS011;3720;48.274;7.796;2024-02-23T15:40:47;2.72;;;0.77;;
7359;SDS011;3720;48.274;7.796;2024-02-23T15:43:19;3.10;;;0.85;;
7359;SDS011;3720;48.274;7.796;2024-02-23T15:45:52;2.78;;;0.80;;
7359;SDS011;3720;48.274;7.796;2024-02-23T15:48:25;3.33;;;0.65;;